createdAt,value
2019-04-28T00:00:08.230Z,9.30
2019-04-28T00:01:11.392Z,9.20
2019-04-28T00:02:14.639Z,9.20
2019-04-28T00:03:15.664Z,9.20
2019-04-28T00:04:16.708Z,9.20
2019-04-28T00:05:18.028Z,9.20
2019-04-28T00:06:20.932Z,9.10
2019-04-28T00:07:22.065Z,9.10
2019-04-28T00:08:23.080Z,9.10
2019-04-28T00:09:24.408Z,9.10
2019-04-28T00:10:25.437Z,9.20
2019-04-28T00:11:26.462Z,9.20
2019-04-28T00:12:27.664Z,9.20
2019-04-28T00:13:28.696Z,9.10
2019-04-28T00:14:31.566Z,9.10
2019-04-28T00:15:33.037Z,9.10
2019-04-28T00:16:34.068Z,9.10
2019-04-28T00:17:35.084Z,9.10
2019-04-28T00:18:36.500Z,9.10
2019-04-28T00:19:37.533Z,9.10
2019-04-28T00:20:42.984Z,9.00
2019-04-28T00:21:45.903Z,9.00
2019-04-28T00:22:57.853Z,9.00
2019-04-28T00:24:03.550Z,9.00
2019-04-28T00:25:07.083Z,9.10
2019-04-28T00:26:27.917Z,9.10
2019-04-28T00:27:28.947Z,9.10
2019-04-28T00:28:31.160Z,9.10
2019-04-28T00:29:40.509Z,9.10
2019-04-28T00:30:35.828Z,9.10
2019-04-28T00:31:36.854Z,9.20
2019-04-28T00:32:37.864Z,9.20
2019-04-28T00:33:38.872Z,9.20
2019-04-28T00:34:41.252Z,9.20
2019-04-28T00:35:43.740Z,9.20
2019-04-28T00:36:46.660Z,9.20
2019-04-28T00:37:47.672Z,9.30
2019-04-28T00:38:55.625Z,9.20
2019-04-28T00:39:56.651Z,9.20
2019-04-28T00:40:57.680Z,9.20
2019-04-28T00:41:58.704Z,9.20
2019-04-28T00:43:00.888Z,9.20
2019-04-28T00:44:02.072Z,9.20
2019-04-28T00:45:06.468Z,9.20
2019-04-28T00:46:08.489Z,9.20
2019-04-28T00:47:11.085Z,9.20
2019-04-28T00:48:12.332Z,9.20
2019-04-28T00:49:13.348Z,9.20
2019-04-28T00:50:14.569Z,9.20
2019-04-28T00:51:15.590Z,9.20
2019-04-28T00:52:18.111Z,9.30
2019-04-28T00:53:20.701Z,9.30
2019-04-28T00:54:22.148Z,9.30
2019-04-28T00:55:23.179Z,9.30
2019-04-28T00:56:24.192Z,9.30
2019-04-28T00:57:25.216Z,9.40
2019-04-28T00:58:26.233Z,9.40
2019-04-28T00:59:27.248Z,9.40
2019-04-28T01:00:31.352Z,9.40
2019-04-28T01:01:37.046Z,9.40
2019-04-28T01:02:41.354Z,9.40
2019-04-28T01:03:42.477Z,9.40
2019-04-28T01:04:43.494Z,9.40
2019-04-28T01:05:44.516Z,9.40
2019-04-28T01:06:45.533Z,9.40
2019-04-28T01:07:46.553Z,9.40
2019-04-28T01:08:47.562Z,9.40
2019-04-28T01:09:48.572Z,9.40
2019-04-28T01:10:50.808Z,9.30
2019-04-28T01:11:53.479Z,9.30
2019-04-28T01:12:54.681Z,9.30
2019-04-28T01:13:55.708Z,9.30
2019-04-28T01:14:58.007Z,9.40
2019-04-28T01:16:13.276Z,9.40
2019-04-28T01:17:16.296Z,9.40
2019-04-28T01:18:35.545Z,9.40
2019-04-28T01:19:39.841Z,9.40
2019-04-28T01:20:41.116Z,9.30
2019-04-28T01:22:00.900Z,9.30
2019-04-28T01:23:01.964Z,9.30
2019-04-28T01:24:03.101Z,9.20
2019-04-28T01:25:07.309Z,9.30
2019-04-28T01:26:09.873Z,9.30
2019-04-28T01:27:31.278Z,9.20
2019-04-28T01:28:32.300Z,9.30
2019-04-28T01:29:33.315Z,9.30
2019-04-28T01:30:53.155Z,9.30
2019-04-28T01:31:56.089Z,9.30
2019-04-28T01:33:10.640Z,9.30
2019-04-28T01:34:20.427Z,9.30
2019-04-28T01:35:21.753Z,9.30
2019-04-28T01:36:22.837Z,9.40
2019-04-28T01:37:23.853Z,9.40
2019-04-28T01:38:24.860Z,9.50
2019-04-28T01:39:25.888Z,9.50
2019-04-28T01:40:26.936Z,9.50
2019-04-28T01:41:29.663Z,9.50
2019-04-28T01:42:30.801Z,9.60
2019-04-28T01:43:31.817Z,9.60
2019-04-28T01:44:32.839Z,9.60
2019-04-28T01:45:33.856Z,9.70
2019-04-28T01:46:34.944Z,9.70
2019-04-28T01:47:35.956Z,9.70
2019-04-28T01:48:37.006Z,9.70
2019-04-28T01:49:38.055Z,9.70
2019-04-28T01:50:40.037Z,9.80
2019-04-28T01:51:41.673Z,9.80
2019-04-28T01:52:42.812Z,9.80
2019-04-28T01:53:43.842Z,9.80
2019-04-28T01:54:44.861Z,9.80
2019-04-28T01:55:46.072Z,9.80
2019-04-28T01:56:47.096Z,9.80
2019-04-28T01:57:49.791Z,9.70
2019-04-28T01:58:51.705Z,9.80
2019-04-28T01:59:52.953Z,9.80
2019-04-28T02:00:54.006Z,9.80
2019-04-28T02:01:55.040Z,9.80
2019-04-28T02:02:56.072Z,9.80
2019-04-28T02:03:57.078Z,9.80
2019-04-28T02:04:59.825Z,9.80
2019-04-28T02:06:01.013Z,9.80
2019-04-28T02:07:02.293Z,9.80
2019-04-28T02:08:03.311Z,9.80
2019-04-28T02:09:07.237Z,9.80
2019-04-28T02:10:10.174Z,9.80
2019-04-28T02:11:11.493Z,9.80
2019-04-28T02:12:12.518Z,9.70
2019-04-28T02:13:13.536Z,9.80
2019-04-28T02:14:14.653Z,9.70
2019-04-28T02:15:15.869Z,9.70
2019-04-28T02:16:16.897Z,9.70
2019-04-28T02:17:17.918Z,9.70
2019-04-28T02:18:19.905Z,9.70
2019-04-28T02:19:21.281Z,9.60
2019-04-28T02:20:22.868Z,9.60
2019-04-28T02:21:42.136Z,9.60
2019-04-28T02:22:45.058Z,9.60
2019-04-28T02:23:46.067Z,9.60
2019-04-28T02:24:47.105Z,9.60
2019-04-28T02:25:49.721Z,9.60
2019-04-28T02:26:52.698Z,9.60
2019-04-28T02:27:53.928Z,9.60
2019-04-28T02:28:54.956Z,9.60
2019-04-28T02:29:55.980Z,9.60
2019-04-28T02:30:56.984Z,9.50
2019-04-28T02:32:01.693Z,9.50
2019-04-28T02:33:01.744Z,9.40
2019-04-28T02:34:03.314Z,9.40
2019-04-28T02:35:05.638Z,9.30
2019-04-28T02:36:08.820Z,9.30
2019-04-28T02:37:11.308Z,9.30
2019-04-28T02:38:12.493Z,9.30
2019-04-28T02:39:13.617Z,9.20
2019-04-28T02:40:14.628Z,9.10
2019-04-28T02:41:15.640Z,9.10
2019-04-28T02:42:16.672Z,9.10
2019-04-28T02:43:17.685Z,9.10
2019-04-28T02:44:23.003Z,9.10
2019-04-28T02:45:22.055Z,9.10
2019-04-28T02:46:23.253Z,9.10
2019-04-28T02:47:24.277Z,9.20
2019-04-28T02:48:26.488Z,9.20
2019-04-28T02:49:41.293Z,9.20
2019-04-28T02:50:44.208Z,9.20
2019-04-28T02:52:03.486Z,9.20
2019-04-28T02:53:12.422Z,9.20
2019-04-28T02:54:13.441Z,9.20
2019-04-28T02:55:14.464Z,9.20
2019-04-28T02:56:15.488Z,9.20
2019-04-28T02:57:16.510Z,9.10
2019-04-28T02:58:17.529Z,9.00
2019-04-28T02:59:20.897Z,9.00
2019-04-28T03:00:21.938Z,9.00
2019-04-28T03:01:26.695Z,8.90
2019-04-28T03:02:26.030Z,8.90
2019-04-28T03:03:27.048Z,8.90
2019-04-28T03:04:30.855Z,8.90
2019-04-28T03:05:33.549Z,8.90
2019-04-28T03:06:34.040Z,8.80
2019-04-28T03:07:35.194Z,8.80
2019-04-28T03:08:36.213Z,8.80
2019-04-28T03:09:37.230Z,8.80
2019-04-28T03:10:40.824Z,8.80
2019-04-28T03:11:43.128Z,8.80
2019-04-28T03:12:44.325Z,8.80
2019-04-28T03:13:45.345Z,8.80
2019-04-28T03:14:46.370Z,8.90
2019-04-28T03:15:47.379Z,8.90
2019-04-28T03:16:50.915Z,8.90
2019-04-28T03:17:53.208Z,8.90
2019-04-28T03:18:54.281Z,8.90
2019-04-28T03:19:55.699Z,8.90
2019-04-28T03:20:56.724Z,8.90
2019-04-28T03:21:57.741Z,8.90
2019-04-28T03:23:00.914Z,8.90
2019-04-28T03:24:01.799Z,8.90
2019-04-28T03:25:06.867Z,8.90
2019-04-28T03:26:12.721Z,8.80
2019-04-28T03:27:32.549Z,8.80
2019-04-28T03:28:35.478Z,8.80
2019-04-28T03:29:43.984Z,8.80
2019-04-28T03:30:54.123Z,8.80
2019-04-28T03:32:18.261Z,8.80
2019-04-28T03:33:17.995Z,8.80
2019-04-28T03:34:14.058Z,8.90
2019-04-28T03:35:15.078Z,8.90
2019-04-28T03:36:16.172Z,8.90
2019-04-28T03:37:17.340Z,8.90
2019-04-28T03:38:21.216Z,8.90
2019-04-28T03:39:21.302Z,8.90
2019-04-28T03:40:22.321Z,8.90
2019-04-28T03:41:23.337Z,8.90
2019-04-28T03:42:24.345Z,8.90
2019-04-28T03:43:25.377Z,8.90
2019-04-28T03:44:26.396Z,8.90
2019-04-28T03:45:30.682Z,8.90
2019-04-28T03:46:36.337Z,8.90
2019-04-28T03:47:37.352Z,8.90
2019-04-28T03:48:40.822Z,8.80
2019-04-28T03:49:43.301Z,8.80
2019-04-28T03:50:44.274Z,8.90
2019-04-28T03:51:45.283Z,8.90
2019-04-28T03:52:46.304Z,8.80
2019-04-28T03:53:47.324Z,8.80
2019-04-28T03:54:50.834Z,8.80
2019-04-28T03:55:51.673Z,8.80
2019-04-28T03:56:53.725Z,8.80
2019-04-28T03:57:54.906Z,8.80
2019-04-28T03:58:55.942Z,8.80
2019-04-28T03:59:56.962Z,8.70
2019-04-28T04:01:02.645Z,8.70
2019-04-28T04:02:03.405Z,8.70
2019-04-28T04:03:03.829Z,8.70
2019-04-28T04:04:04.857Z,8.80
2019-04-28T04:05:06.092Z,8.80
2019-04-28T04:06:07.096Z,8.80
2019-04-28T04:07:12.522Z,8.80
2019-04-28T04:08:13.559Z,8.70
2019-04-28T04:09:14.595Z,8.70
2019-04-28T04:10:24.081Z,8.70
2019-04-28T04:11:43.404Z,8.70
2019-04-28T04:12:46.329Z,8.70
2019-04-28T04:13:51.215Z,8.70
2019-04-28T04:15:11.298Z,8.70
2019-04-28T04:16:14.393Z,8.70
2019-04-28T04:17:17.313Z,8.70
2019-04-28T04:18:30.862Z,8.70
2019-04-28T04:19:33.942Z,8.70
2019-04-28T04:20:34.957Z,8.70
2019-04-28T04:21:35.980Z,8.80
2019-04-28T04:22:37.006Z,8.80
2019-04-28T04:23:40.910Z,8.80
2019-04-28T04:24:41.856Z,8.80
2019-04-28T04:25:42.869Z,8.80
2019-04-28T04:26:43.893Z,8.80
2019-04-28T04:27:44.914Z,8.80
2019-04-28T04:28:45.951Z,8.80
2019-04-28T04:29:47.008Z,8.80
2019-04-28T04:30:50.513Z,8.90
2019-04-28T04:31:51.303Z,8.90
2019-04-28T04:32:52.375Z,9.00
2019-04-28T04:33:53.393Z,8.90
2019-04-28T04:34:54.421Z,8.90
2019-04-28T04:35:55.437Z,8.90
2019-04-28T04:36:56.477Z,8.90
2019-04-28T04:37:57.490Z,8.90
2019-04-28T04:39:01.402Z,8.90
2019-04-28T04:40:01.842Z,8.90
2019-04-28T04:41:03.055Z,8.80
2019-04-28T04:42:04.066Z,8.70
2019-04-28T04:43:05.087Z,8.70
2019-04-28T04:44:06.113Z,8.70
2019-04-28T04:45:07.228Z,8.70
2019-04-28T04:46:15.913Z,8.70
2019-04-28T04:47:17.026Z,8.70
2019-04-28T04:48:18.045Z,8.70
2019-04-28T04:49:21.515Z,8.80
2019-04-28T04:50:21.989Z,8.80
2019-04-28T04:51:23.007Z,8.90
2019-04-28T04:52:24.025Z,8.90
2019-04-28T04:53:25.041Z,8.90
2019-04-28T04:54:26.066Z,8.90
2019-04-28T04:55:27.783Z,9.00
2019-04-28T04:56:30.231Z,9.00
2019-04-28T04:57:32.661Z,9.00
2019-04-28T04:58:33.844Z,9.00
2019-04-28T04:59:35.662Z,9.00
2019-04-28T05:00:53.356Z,9.00
2019-04-28T05:02:01.708Z,9.00
2019-04-28T05:03:04.013Z,9.00
2019-04-28T05:04:09.853Z,9.00
2019-04-28T05:05:15.548Z,9.00
2019-04-28T05:06:36.043Z,9.00
2019-04-28T05:07:37.133Z,9.00
2019-04-28T05:08:39.866Z,8.90
2019-04-28T05:09:41.077Z,8.90
2019-04-28T05:10:42.106Z,8.90
2019-04-28T05:11:43.113Z,8.90
2019-04-28T05:12:44.125Z,8.90
2019-04-28T05:13:45.152Z,8.80
2019-04-28T05:14:46.186Z,8.80
2019-04-28T05:15:47.201Z,8.70
2019-04-28T05:16:49.715Z,8.70
2019-04-28T05:17:50.952Z,8.70
2019-04-28T05:18:51.948Z,8.70
2019-04-28T05:19:52.976Z,8.60
2019-04-28T05:20:54.011Z,8.60
2019-04-28T05:21:55.031Z,8.60
2019-04-28T05:23:13.040Z,8.60
2019-04-28T05:24:21.553Z,8.60
2019-04-28T05:25:33.246Z,8.70
2019-04-28T05:26:34.256Z,8.70
2019-04-28T05:27:35.264Z,8.70
2019-04-28T05:28:36.959Z,8.70
2019-04-28T05:29:39.768Z,8.70
2019-04-28T05:30:43.005Z,8.70
2019-04-28T05:31:43.952Z,8.70
2019-04-28T05:32:49.834Z,8.70
2019-04-28T05:33:49.834Z,8.70
2019-04-28T05:34:52.949Z,8.70
2019-04-28T05:35:54.596Z,8.70
2019-04-28T05:36:55.674Z,8.70
2019-04-28T05:37:56.712Z,8.70
2019-04-28T05:38:57.736Z,8.70
2019-04-28T05:40:00.850Z,8.70
2019-04-28T05:41:02.797Z,8.70
2019-04-28T05:42:04.003Z,8.80
2019-04-28T05:43:05.025Z,8.80
2019-04-28T05:44:06.041Z,8.80
2019-04-28T05:45:07.511Z,8.80
2019-04-28T05:46:10.494Z,8.80
2019-04-28T05:47:11.440Z,8.80
2019-04-28T05:48:12.474Z,8.80
2019-04-28T05:49:15.384Z,8.90
2019-04-28T05:50:19.654Z,9.00
2019-04-28T05:51:25.452Z,9.10
2019-04-28T05:52:45.092Z,9.20
2019-04-28T05:53:53.995Z,9.30
2019-04-28T05:54:56.912Z,9.40
2019-04-28T05:56:11.768Z,9.50
2019-04-28T05:57:14.698Z,9.60
2019-04-28T05:58:17.636Z,9.70
2019-04-28T05:59:21.424Z,9.70
2019-04-28T06:00:27.315Z,9.70
2019-04-28T06:01:46.942Z,9.60
2019-04-28T06:02:56.569Z,9.70
2019-04-28T06:03:52.768Z,9.70
2019-04-28T06:04:53.809Z,9.70
2019-04-28T06:05:57.073Z,9.70
2019-04-28T06:06:59.782Z,9.70
2019-04-28T06:08:05.532Z,9.60
2019-04-28T06:09:10.244Z,9.60
2019-04-28T06:10:12.543Z,9.60
2019-04-28T06:11:32.220Z,9.60
2019-04-28T06:12:33.795Z,9.60
2019-04-28T06:13:34.825Z,9.70
2019-04-28T06:14:35.843Z,9.70
2019-04-28T06:15:36.879Z,9.80
2019-04-28T06:16:37.899Z,9.80
2019-04-28T06:17:39.699Z,9.70
2019-04-28T06:18:42.157Z,9.70
2019-04-28T06:19:43.352Z,9.70
2019-04-28T06:20:44.376Z,9.80
2019-04-28T06:21:45.397Z,9.80
2019-04-28T06:22:46.405Z,9.90
2019-04-28T06:23:47.428Z,9.90
2019-04-28T06:24:48.435Z,9.90
2019-04-28T06:25:49.466Z,10.00
2019-04-28T06:26:50.480Z,10.00
2019-04-28T06:27:51.495Z,10.00
2019-04-28T06:28:52.513Z,10.00
2019-04-28T06:29:53.526Z,9.90
2019-04-28T06:30:54.564Z,9.90
2019-04-28T06:31:55.584Z,9.90
2019-04-28T06:33:07.265Z,10.00
2019-04-28T06:33:59.543Z,10.00
2019-04-28T06:35:00.595Z,10.00
2019-04-28T06:36:01.617Z,10.00
2019-04-28T06:37:02.730Z,9.90
2019-04-28T06:38:03.757Z,9.90
2019-04-28T06:39:06.272Z,9.90
2019-04-28T06:40:07.580Z,9.90
2019-04-28T06:41:08.604Z,9.90
2019-04-28T06:42:09.616Z,9.90
2019-04-28T06:43:10.689Z,9.90
2019-04-28T06:44:11.704Z,9.90
2019-04-28T06:45:12.817Z,10.00
2019-04-28T06:46:13.836Z,10.00
2019-04-28T06:47:16.757Z,10.00
2019-04-28T06:48:17.773Z,10.00
2019-04-28T06:49:18.776Z,10.10
2019-04-28T06:50:19.800Z,10.10
2019-04-28T06:51:20.889Z,10.20
2019-04-28T06:52:22.090Z,10.20
2019-04-28T06:53:23.103Z,10.20
2019-04-28T06:54:24.132Z,10.30
2019-04-28T06:55:25.158Z,10.30
2019-04-28T06:56:26.192Z,10.40
2019-04-28T06:57:27.208Z,10.40
2019-04-28T06:58:28.424Z,10.40
2019-04-28T06:59:29.452Z,10.50
2019-04-28T07:00:30.454Z,10.60
2019-04-28T07:01:31.477Z,10.70
2019-04-28T07:02:32.491Z,10.80
2019-04-28T07:03:33.520Z,10.80
2019-04-28T07:04:34.537Z,10.80
2019-04-28T07:05:35.555Z,10.80
2019-04-28T07:06:36.588Z,10.70
2019-04-28T07:07:37.614Z,10.70
2019-04-28T07:08:38.624Z,10.80
2019-04-28T07:09:39.748Z,10.70
2019-04-28T07:10:40.764Z,10.70
2019-04-28T07:11:41.886Z,10.70
2019-04-28T07:12:42.971Z,10.70
2019-04-28T07:13:43.999Z,10.70
2019-04-28T07:14:45.132Z,10.60
2019-04-28T07:15:46.750Z,10.60
2019-04-28T07:16:47.789Z,10.60
2019-04-28T07:17:48.817Z,10.60
2019-04-28T07:18:49.901Z,10.70
2019-04-28T07:19:52.853Z,10.70
2019-04-28T07:20:58.821Z,10.70
2019-04-28T07:22:01.752Z,10.80
2019-04-28T07:23:02.910Z,10.80
2019-04-28T07:24:03.985Z,10.90
2019-04-28T07:25:05.196Z,10.90
2019-04-28T07:26:06.229Z,10.80
2019-04-28T07:27:07.261Z,10.80
2019-04-28T07:28:08.276Z,10.80
2019-04-28T07:29:09.288Z,10.80
2019-04-28T07:30:12.311Z,10.80
2019-04-28T07:38:43.057Z,10.20
2019-04-28T07:39:44.090Z,10.20
2019-04-28T07:40:45.200Z,10.10
2019-04-28T07:41:46.216Z,10.10
2019-04-28T07:42:47.249Z,10.20
2019-04-28T07:43:48.261Z,10.20
2019-04-28T07:44:49.277Z,10.30
2019-04-28T07:45:50.292Z,10.40
2019-04-28T07:46:51.391Z,10.40
2019-04-28T07:47:52.496Z,10.50
2019-04-28T07:48:53.514Z,10.60
2019-04-28T07:49:54.536Z,10.70
2019-04-28T07:50:55.559Z,10.80
2019-04-28T07:52:07.492Z,10.80
2019-04-28T07:53:12.974Z,10.90
2019-04-28T07:54:20.770Z,10.90
2019-04-28T07:55:21.792Z,10.90
2019-04-28T07:56:22.812Z,10.90
2019-04-28T07:57:24.158Z,11.00
2019-04-28T07:58:25.257Z,11.00
2019-04-28T07:59:26.389Z,11.10
2019-04-28T08:00:29.303Z,11.00
2019-04-28T08:01:30.324Z,11.00
2019-04-28T08:02:31.344Z,11.00
2019-04-28T08:03:32.362Z,11.00
2019-04-28T08:04:33.411Z,11.00
2019-04-28T08:05:34.452Z,11.00
2019-04-28T08:06:35.471Z,11.10
2019-04-28T08:07:36.488Z,11.10
2019-04-28T08:08:37.509Z,11.10
2019-04-28T08:09:38.552Z,11.10
2019-04-28T08:10:39.769Z,11.00
2019-04-28T08:11:40.792Z,11.00
2019-04-28T08:12:41.830Z,10.90
2019-04-28T08:13:42.840Z,10.90
2019-04-28T08:14:43.867Z,10.70
2019-04-28T08:15:47.897Z,10.70
2019-04-28T08:16:49.012Z,10.60
2019-04-28T08:17:50.045Z,10.50
2019-04-28T08:18:51.053Z,10.40
2019-04-28T08:19:52.069Z,10.30
2019-04-28T08:20:53.108Z,10.20
2019-04-28T08:21:54.180Z,10.10
2019-04-28T08:22:55.199Z,10.10
2019-04-28T08:23:56.213Z,10.00
2019-04-28T08:24:57.223Z,10.00
2019-04-28T08:25:58.240Z,10.00
2019-04-28T08:26:59.352Z,10.10
2019-04-28T08:28:00.385Z,10.10
2019-04-28T08:29:01.408Z,10.00
2019-04-28T08:30:04.124Z,10.00
2019-04-28T08:31:05.743Z,9.90
2019-04-28T08:32:11.637Z,9.90
2019-04-28T08:33:14.564Z,10.00
2019-04-28T08:34:17.516Z,9.90
2019-04-28T08:35:18.596Z,9.90
2019-04-28T08:36:19.612Z,9.90
2019-04-28T08:37:20.650Z,9.90
2019-04-28T08:38:21.659Z,10.00
2019-04-28T08:39:25.095Z,10.00
2019-04-28T08:40:25.621Z,10.00
2019-04-28T08:41:26.633Z,10.00
2019-04-28T08:42:27.647Z,10.00
2019-04-28T08:43:28.670Z,10.10
2019-04-28T08:44:29.855Z,10.10
2019-04-28T08:45:30.876Z,10.20
2019-04-28T08:46:31.892Z,10.30
2019-04-28T08:47:32.917Z,10.40
2019-04-28T08:48:34.049Z,10.50
2019-04-28T08:49:35.059Z,10.60
2019-04-28T08:50:36.067Z,10.70
2019-04-28T08:51:37.088Z,10.70
2019-04-28T08:52:38.109Z,10.80
2019-04-28T08:53:39.136Z,10.90
2019-04-28T08:54:40.152Z,11.00
2019-04-28T08:55:41.168Z,11.10
2019-04-28T08:56:42.185Z,11.10
2019-04-28T08:57:43.204Z,11.20
2019-04-28T08:58:44.260Z,11.30
2019-04-28T08:59:45.268Z,11.30
2019-04-28T09:00:46.531Z,11.40
2019-04-28T09:01:47.609Z,11.50
2019-04-28T09:02:48.625Z,11.60
2019-04-28T09:03:49.656Z,11.60
2019-04-28T09:04:50.672Z,11.70
2019-04-28T09:05:51.680Z,11.70
2019-04-28T09:06:52.702Z,11.80
2019-04-28T09:07:53.744Z,11.80
2019-04-28T09:08:54.773Z,11.80
2019-04-28T09:09:55.790Z,11.90
2019-04-28T09:10:56.813Z,11.90
2019-04-28T09:11:57.829Z,11.90
2019-04-28T09:12:58.868Z,12.00
2019-04-28T09:13:59.905Z,12.10
2019-04-28T09:15:01.030Z,12.20
2019-04-28T09:16:02.817Z,12.20
2019-04-28T09:17:04.061Z,12.30
2019-04-28T09:18:05.253Z,12.30
2019-04-28T09:19:06.299Z,12.30
2019-04-28T09:20:07.399Z,12.30
2019-04-28T09:21:08.428Z,12.30
2019-04-28T09:22:09.469Z,12.40
2019-04-28T09:23:10.485Z,12.30
2019-04-28T09:24:12.030Z,12.30
2019-04-28T09:25:13.069Z,12.30
2019-04-28T09:26:14.102Z,12.20
2019-04-28T09:27:15.132Z,12.20
2019-04-28T09:28:16.166Z,12.10
2019-04-28T09:29:17.270Z,12.10
2019-04-28T09:30:18.288Z,12.00
2019-04-28T09:31:19.308Z,11.90
2019-04-28T09:32:20.324Z,11.80
2019-04-28T09:33:21.343Z,11.70
2019-04-28T09:35:48.576Z,11.50
2019-04-28T09:36:49.605Z,11.40
2019-04-28T09:37:50.612Z,11.40
2019-04-28T09:38:51.949Z,11.30
2019-04-28T09:39:54.943Z,11.20
2019-04-28T09:40:56.010Z,11.20
2019-04-28T09:42:15.535Z,11.20
2019-04-28T09:43:18.452Z,11.10
2019-04-28T09:44:19.677Z,11.10
2019-04-28T09:45:34.380Z,11.10
2019-04-28T09:46:40.476Z,11.00
2019-04-28T09:47:41.485Z,11.00
2019-04-28T09:48:42.508Z,11.00
2019-04-28T09:49:43.576Z,11.00
2019-04-28T09:50:44.608Z,11.00
2019-04-28T09:51:45.618Z,11.00
2019-04-28T09:52:48.747Z,11.00
2019-04-28T09:53:49.560Z,11.00
2019-04-28T09:54:50.584Z,11.10
2019-04-28T09:55:51.605Z,11.10
2019-04-28T09:56:57.002Z,11.10
2019-04-28T09:57:55.565Z,11.20
2019-04-28T09:58:56.593Z,11.20
2019-04-28T09:59:57.624Z,11.30
2019-04-28T10:00:58.642Z,11.40
2019-04-28T10:01:59.658Z,11.50
2019-04-28T10:03:00.695Z,11.60
2019-04-28T10:04:01.725Z,11.70
2019-04-28T10:05:05.683Z,11.80
2019-04-28T10:06:06.697Z,11.90
2019-04-28T10:07:07.712Z,12.00
2019-04-28T10:08:08.792Z,12.10
2019-04-28T10:09:09.934Z,12.20
2019-04-28T10:10:11.349Z,12.20
2019-04-28T10:11:12.368Z,12.30
2019-04-28T10:12:26.331Z,12.40
2019-04-28T10:13:16.308Z,12.50
2019-04-28T10:14:17.324Z,12.60
2019-04-28T10:15:18.552Z,12.70
2019-04-28T10:16:19.880Z,12.80
2019-04-28T10:17:20.897Z,12.90
2019-04-28T10:18:21.933Z,13.00
2019-04-28T10:19:22.943Z,13.10
2019-04-28T10:20:23.977Z,13.20
2019-04-28T10:21:25.013Z,13.30
2019-04-28T10:22:26.035Z,13.40
2019-04-28T10:23:27.051Z,13.40
2019-04-28T10:24:28.072Z,13.40
2019-04-28T10:25:29.105Z,13.30
2019-04-28T10:26:30.108Z,13.20
2019-04-28T10:27:31.129Z,13.20
2019-04-28T10:28:32.140Z,13.20
2019-04-28T10:29:33.173Z,13.20
2019-04-28T10:30:34.296Z,13.10
2019-04-28T10:31:35.316Z,13.10
2019-04-28T10:32:37.135Z,13.20
2019-04-28T10:33:40.060Z,13.20
2019-04-28T10:34:54.063Z,13.20
2019-04-28T10:35:44.005Z,13.20
2019-04-28T10:36:45.117Z,13.10
2019-04-28T10:37:46.132Z,13.10
2019-04-28T10:38:48.761Z,13.10
2019-04-28T10:39:54.224Z,13.10
2019-04-28T10:40:57.145Z,13.00
2019-04-28T10:41:58.158Z,13.00
2019-04-28T10:42:59.176Z,12.90
2019-04-28T10:44:00.197Z,12.80
2019-04-28T10:45:03.125Z,12.80
2019-04-28T10:46:04.168Z,12.70
2019-04-28T10:47:05.381Z,12.60
2019-04-28T10:48:06.392Z,12.50
2019-04-28T10:49:07.404Z,12.40
2019-04-28T10:50:08.837Z,12.30
2019-04-28T10:51:09.861Z,12.20
2019-04-28T10:52:10.891Z,12.20
2019-04-28T10:53:12.216Z,12.20
2019-04-28T10:54:13.232Z,12.20
2019-04-28T10:55:14.252Z,12.20
2019-04-28T10:56:15.264Z,12.20
2019-04-28T10:57:16.282Z,12.20
2019-04-28T10:58:17.307Z,12.20
2019-04-28T10:59:18.320Z,12.20
2019-04-28T11:00:21.458Z,12.20
2019-04-28T11:01:22.468Z,12.20
2019-04-28T11:02:23.486Z,12.30
2019-04-28T11:03:24.501Z,12.30
2019-04-28T11:04:39.236Z,12.30
2019-04-28T11:05:42.202Z,12.40
2019-04-28T11:06:43.208Z,12.40
2019-04-28T11:07:44.253Z,12.40
2019-04-28T11:08:47.165Z,12.40
2019-04-28T11:09:59.320Z,12.40
2019-04-28T11:11:02.257Z,12.40
2019-04-28T11:12:05.285Z,12.40
2019-04-28T11:13:06.503Z,12.30
2019-04-28T11:14:07.516Z,12.30
2019-04-28T11:15:10.652Z,12.30
2019-04-28T11:16:13.313Z,12.30
2019-04-28T11:17:14.434Z,12.30
2019-04-28T11:18:15.560Z,12.30
2019-04-28T11:19:16.685Z,12.40
2019-04-28T11:20:17.729Z,12.40
2019-04-28T11:21:18.773Z,12.40
2019-04-28T11:22:20.102Z,12.50
2019-04-28T11:23:23.224Z,12.50
2019-04-28T11:24:24.029Z,12.50
2019-04-28T11:25:25.148Z,12.50
2019-04-28T11:26:26.201Z,12.60
2019-04-28T11:27:27.320Z,12.60
2019-04-28T11:28:28.344Z,12.70
2019-04-28T11:29:29.381Z,12.70
2019-04-28T11:30:30.392Z,12.70
2019-04-28T11:31:31.508Z,12.70
2019-04-28T11:32:32.628Z,12.70
2019-04-28T11:33:53.420Z,12.60
2019-04-28T11:35:05.140Z,12.60
2019-04-28T11:36:06.392Z,12.50
2019-04-28T11:37:07.604Z,12.40
2019-04-28T11:38:08.619Z,12.30
2019-04-28T11:39:11.552Z,12.30
2019-04-28T11:40:12.880Z,12.20
2019-04-28T11:41:14.025Z,12.00
2019-04-28T11:42:15.049Z,12.00
2019-04-28T11:43:16.074Z,11.90
2019-04-28T11:44:17.104Z,11.80
2019-04-28T11:45:18.118Z,11.60
2019-04-28T11:46:20.943Z,11.50
2019-04-28T11:47:22.468Z,11.40
2019-04-28T11:48:23.488Z,11.10
2019-04-28T11:49:24.512Z,11.10
2019-04-28T11:50:26.017Z,10.90
2019-04-28T11:51:27.049Z,10.80
2019-04-28T11:52:28.094Z,10.60
2019-04-28T11:53:29.120Z,10.50
2019-04-28T11:54:30.137Z,10.40
2019-04-28T11:55:31.160Z,10.20
2019-04-28T11:56:41.245Z,10.10
2019-04-28T11:57:35.126Z,10.00
2019-04-28T11:58:36.511Z,9.90
2019-04-28T11:59:37.549Z,9.80
2019-04-28T12:00:38.667Z,9.80
2019-04-28T12:01:39.700Z,9.70
2019-04-28T12:02:40.725Z,9.70
2019-04-28T12:03:41.741Z,9.70
2019-04-28T12:04:42.897Z,9.70
2019-04-28T12:05:45.829Z,9.70
2019-04-28T12:06:46.846Z,9.70
2019-04-28T12:07:47.927Z,9.60
2019-04-28T12:08:50.856Z,9.60
2019-04-28T12:10:06.556Z,9.60
2019-04-28T12:11:09.674Z,9.50
2019-04-28T12:12:24.388Z,9.60
2019-04-28T12:13:27.312Z,9.60
2019-04-28T12:14:35.959Z,9.50
2019-04-28T12:15:44.957Z,9.50
2019-04-28T12:17:05.967Z,9.50
2019-04-28T12:18:20.929Z,9.50
2019-04-28T12:19:23.854Z,9.50
2019-04-28T12:20:25.801Z,9.60
2019-04-28T12:21:26.835Z,9.60
2019-04-28T12:22:27.873Z,9.60
2019-04-28T12:23:28.881Z,9.60
2019-04-28T12:24:29.924Z,9.70
2019-04-28T12:25:30.944Z,9.70
2019-04-28T12:26:31.994Z,9.70
2019-04-28T12:27:33.002Z,9.80
2019-04-28T12:28:34.032Z,9.80
2019-04-28T12:29:35.050Z,9.80
2019-04-28T12:30:36.136Z,9.90
2019-04-28T12:31:37.204Z,10.00
2019-04-28T12:32:38.221Z,10.00
2019-04-28T12:33:39.237Z,10.10
2019-04-28T12:34:40.262Z,10.20
2019-04-28T12:35:47.498Z,10.20
2019-04-28T12:36:44.303Z,10.30
2019-04-28T12:37:45.404Z,10.40
2019-04-28T12:38:46.485Z,10.50
2019-04-28T12:39:47.511Z,10.50
2019-04-28T12:40:48.530Z,10.60
2019-04-28T12:41:49.566Z,10.70
2019-04-28T12:42:50.579Z,10.70
2019-04-28T12:43:51.617Z,10.70
2019-04-28T12:44:52.629Z,10.70
2019-04-28T12:45:53.649Z,10.80
2019-04-28T12:46:54.676Z,10.80
2019-04-28T12:47:55.726Z,10.90
2019-04-28T12:48:58.669Z,10.90
2019-04-28T12:50:01.578Z,11.00
2019-04-28T12:51:02.629Z,11.00
2019-04-28T12:52:04.672Z,11.10
2019-04-28T12:53:05.704Z,11.20
2019-04-28T12:54:08.633Z,11.30
2019-04-28T12:55:09.648Z,11.40
2019-04-28T12:56:10.771Z,11.40
2019-04-28T12:57:11.801Z,11.50
2019-04-28T12:58:12.836Z,11.60
2019-04-28T12:59:15.770Z,11.70
2019-04-28T13:00:27.691Z,11.80
2019-04-28T13:01:30.631Z,11.90
2019-04-28T13:02:33.564Z,12.00
2019-04-28T13:03:48.384Z,12.20
2019-04-28T13:04:53.832Z,12.20
2019-04-28T13:06:02.503Z,12.30
2019-04-28T13:07:01.177Z,12.30
2019-04-28T13:08:02.322Z,12.40
2019-04-28T13:09:04.856Z,12.50
2019-04-28T13:10:06.289Z,12.60
2019-04-28T13:11:07.313Z,12.80
2019-04-28T13:12:08.359Z,13.00
2019-04-28T13:13:09.381Z,13.10
2019-04-28T13:14:10.400Z,13.20
2019-04-28T13:15:11.525Z,13.20
2019-04-28T13:16:12.697Z,13.30
2019-04-28T13:17:13.739Z,13.30
2019-04-28T13:18:14.752Z,13.30
2019-04-28T13:19:15.777Z,13.50
2019-04-28T13:20:16.785Z,13.60
2019-04-28T13:21:17.805Z,13.70
2019-04-28T13:22:18.848Z,13.80
2019-04-28T13:23:19.891Z,13.90
2019-04-28T13:24:20.911Z,14.00
2019-04-28T13:25:21.928Z,14.20
2019-04-28T13:26:22.999Z,14.20
2019-04-28T13:27:24.050Z,14.30
2019-04-28T13:28:25.091Z,14.30
2019-04-28T13:29:26.184Z,14.30
2019-04-28T13:30:27.205Z,14.30
2019-04-28T13:31:28.241Z,14.40
2019-04-28T13:32:29.270Z,14.60
2019-04-28T13:33:30.301Z,14.70
2019-04-28T13:34:33.141Z,14.90
2019-04-28T13:35:34.162Z,15.00
2019-04-28T13:36:35.185Z,15.20
2019-04-28T13:37:36.236Z,15.30
2019-04-28T13:38:37.291Z,15.30
2019-04-28T13:39:55.114Z,15.30
2019-04-28T13:40:56.124Z,15.40
2019-04-28T13:41:57.151Z,15.30
2019-04-28T13:42:58.180Z,15.30
2019-04-28T13:44:00.408Z,15.30
2019-04-28T13:45:03.434Z,15.30
2019-04-28T13:46:04.588Z,15.30
2019-04-28T13:47:05.578Z,15.40